Time;durP1;ratioP1;P1;durP2;ratioP2;P2;SDS_P1;SDS_P2;PMS_P1;PMS_P2;Temp;Humidity;BMP_temperature;BMP_pressure;BME280_temperature;BME280_humidity;BME280_pressure;Samples;Min_cycle;Max_cycle;Signal;HPM_P1;HPM_P2
2022/08/17 00:02:18;;;;;;;11.90;2.58;;;;;;;11.13;100.00;101276.00;5055284;28;20136;-83
2022/08/17 00:04:53;;;;;;;8.95;2.28;;;;;;;11.11;100.00;101276.97;5056124;28;20052;-83
2022/08/17 00:07:20;;;;;;;10.90;2.42;;;;;;;10.95;100.00;101276.59;5054925;28;20463;-83
2022/08/17 00:09:46;;;;;;;14.25;2.70;;;;;;;11.11;100.00;101277.81;5045839;28;20053;-82
2022/08/17 00:12:13;;;;;;;12.50;3.13;;;;;;;10.84;100.00;101253.34;5056061;28;20128;-83
2022/08/17 00:15:00;;;;;;;11.65;3.25;;;;;;;10.67;100.00;101243.34;5055092;28;20045;-83
2022/08/17 00:17:27;;;;;;;13.05;3.05;;;;;;;10.71;100.00;101257.22;5054629;28;20041;-83
2022/08/17 00:19:54;;;;;;;12.25;2.63;;;;;;;10.94;100.00;101277.47;5055619;28;20051;-83
2022/08/17 00:22:21;;;;;;;9.18;2.65;;;;;;;10.93;100.00;101279.25;5054527;28;20053;-83
2022/08/17 00:25:05;;;;;;;12.52;2.90;;;;;;;10.85;100.00;101283.00;5053974;28;20061;-83
2022/08/17 00:27:34;;;;;;;9.32;3.15;;;;;;;10.93;100.00;101281.03;5054945;28;20045;-83
2022/08/17 00:30:00;;;;;;;10.50;2.67;;;;;;;10.86;100.00;101285.59;5055524;28;20044;-83
2022/08/17 00:32:27;;;;;;;12.05;2.75;;;;;;;10.86;100.00;101289.97;5055419;28;20088;-83
2022/08/17 00:35:18;;;;;;;9.30;2.90;;;;;;;10.94;100.00;101295.81;5054658;28;20050;-83
2022/08/17 00:37:45;;;;;;;13.00;3.53;;;;;;;10.81;100.00;101279.63;5055624;28;20045;-82
2022/08/17 00:40:13;;;;;;;8.13;2.60;;;;;;;11.01;100.00;101308.72;5050925;28;20055;-82
2022/08/17 00:42:42;;;;;;;9.05;2.42;;;;;;;10.99;100.00;101304.41;5045400;28;20483;-82
2022/08/17 00:45:12;;;;;;;10.40;3.05;;;;;;;10.91;100.00;101296.78;5054435;28;20047;-83
2022/08/17 00:47:40;;;;;;;6.72;2.00;;;;;;;10.97;100.00;101295.75;5054317;28;20049;-82
2022/08/17 00:50:09;;;;;;;12.30;3.05;;;;;;;10.99;100.00;101300.00;5052075;28;20049;-82
2022/08/17 00:52:44;;;;;;;9.73;2.13;;;;;;;10.95;100.00;101297.56;5042736;28;20063;-83
2022/08/17 00:55:11;;;;;;;11.70;2.22;;;;;;;10.90;100.00;101297.69;5049866;28;20492;-83
2022/08/17 00:57:43;;;;;;;15.00;2.78;;;;;;;10.62;100.00;101266.19;5041962;28;20410;-83
2022/08/17 01:00:20;;;;;;;12.02;3.15;;;;;;;10.79;100.00;101295.38;5055126;28;20049;-83
2022/08/17 01:02:47;;;;;;;10.70;2.78;;;;;;;10.79;100.00;101300.63;5045420;28;20045;-83
2022/08/17 01:05:19;;;;;;;13.25;2.60;;;;;;;10.73;100.00;101292.97;5062346;28;20548;-83
2022/08/17 01:07:49;;;;;;;11.95;3.00;;;;;;;10.68;100.00;101284.38;5054520;28;20518;-83
2022/08/17 01:10:21;;;;;;;10.20;2.45;;;;;;;10.64;100.00;101291.47;5053432;28;20704;-83
2022/08/17 01:13:10;;;;;;;13.10;3.05;;;;;;;10.54;100.00;101282.16;5033993;28;20050;-83
2022/08/17 01:15:40;;;;;;;10.00;2.70;;;;;;;10.62;100.00;101305.47;5037327;28;20049;-83
2022/08/17 01:18:13;;;;;;;16.25;2.65;;;;;;;10.54;100.00;101294.38;5053794;28;20045;-83
2022/08/17 01:20:45;;;;;;;10.40;2.85;;;;;;;10.40;100.00;101292.16;5053621;28;20049;-83
2022/08/17 01:23:17;;;;;;;9.98;3.05;;;;;;;10.58;100.00;101302.09;5053286;28;20055;-82
2022/08/17 01:25:55;;;;;;;12.05;3.30;;;;;;;10.64;100.00;101304.56;5044230;28;20049;-83
2022/08/17 01:28:25;;;;;;;9.07;3.13;;;;;;;10.58;100.00;101299.47;5052197;28;20044;-83
2022/08/17 01:31:12;;;;;;;15.15;2.85;;;;;;;10.58;100.00;101298.63;5053624;28;20154;-83
2022/08/17 01:33:39;;;;;;;14.70;2.28;;;;;;;10.57;100.00;101289.94;5053362;28;20059;-83
2022/08/17 01:36:07;;;;;;;8.10;2.63;;;;;;;10.63;100.00;101302.81;5053289;28;20053;-83
2022/08/17 01:38:35;;;;;;;17.38;2.80;;;;;;;10.62;100.00;101308.09;5052943;28;20505;-82
2022/08/17 01:41:10;;;;;;;8.82;2.90;;;;;;;10.60;100.00;101283.72;5044007;28;20050;-83
2022/08/17 01:43:43;;;;;;;12.48;2.90;;;;;;;10.62;100.00;101310.72;5051769;28;20123;-82
2022/08/17 01:46:14;;;;;;;17.60;3.17;;;;;;;10.51;100.00;101303.19;5053420;28;20410;-83
2022/08/17 01:48:42;;;;;;;15.30;2.92;;;;;;;10.42;100.00;101308.69;5052741;28;20045;-82
2022/08/17 01:51:09;;;;;;;9.70;2.53;;;;;;;10.55;100.00;101309.19;5053102;28;20411;-83
2022/08/17 01:53:40;;;;;;;8.13;2.28;;;;;;;10.66;100.00;101290.53;5053078;28;20449;-82
2022/08/17 01:56:10;;;;;;;11.38;3.28;;;;;;;10.75;100.00;101308.63;5045058;28;20414;-83
2022/08/17 01:58:38;;;;;;;10.15;2.60;;;;;;;10.74;100.00;101307.75;5041209;28;20037;-83
2022/08/17 02:01:06;;;;;;;9.02;2.20;;;;;;;10.85;100.00;101309.19;5053022;28;20045;-82
2022/08/17 02:03:35;;;;;;;8.32;2.33;;;;;;;10.89;100.00;101316.94;5053064;28;20049;-83
2022/08/17 02:06:04;;;;;;;10.57;2.03;;;;;;;10.85;100.00;101315.28;5039703;28;20048;-83
2022/08/17 02:08:51;;;;;;;9.18;2.63;;;;;;;10.87;100.00;101328.34;5053854;28;20049;-83
2022/08/17 02:11:32;;;;;;;8.10;2.50;;;;;;;10.88;100.00;101317.81;5053198;28;20402;-83
2022/08/17 02:14:00;;;;;;;7.60;2.17;;;;;;;10.91;100.00;101324.75;5051900;28;20072;-83
2022/08/17 02:16:35;;;;;;;7.68;2.28;;;;;;;10.99;100.00;101335.84;5037831;28;20128;-83
2022/08/17 02:19:10;;;;;;;8.15;1.80;;;;;;;11.04;100.00;101340.97;5052769;28;20394;-82
2022/08/17 02:21:40;;;;;;;6.80;2.20;;;;;;;10.97;100.00;101322.78;5052314;28;20480;-82
2022/08/17 02:24:20;;;;;;;12.25;2.53;;;;;;;10.80;100.00;101312.81;5051839;28;20060;-82
2022/08/17 02:27:07;;;;;;;11.45;2.40;;;;;;;10.89;100.00;101319.56;5041141;28;20045;-82
2022/08/17 02:29:34;;;;;;;8.43;2.10;;;;;;;10.85;100.00;101327.53;5051710;28;20052;-82
2022/08/17 02:32:01;;;;;;;12.15;2.10;;;;;;;10.88;100.00;101328.31;5052655;28;20467;-83
2022/08/17 02:34:27;;;;;;;9.25;2.70;;;;;;;10.88;100.00;101330.06;5052577;28;20048;-82
2022/08/17 02:36:54;;;;;;;9.90;2.22;;;;;;;10.79;100.00;101334.66;5052340;28;20568;-83
2022/08/17 02:39:21;;;;;;;7.10;2.33;;;;;;;10.77;100.00;101314.69;5052101;28;20053;-83
2022/08/17 02:41:48;;;;;;;6.07;1.80;;;;;;;10.73;100.00;101320.88;5052960;28;20049;-82
2022/08/17 02:44:15;;;;;;;8.95;2.40;;;;;;;10.68;100.00;101326.28;5051708;28;20048;-83
2022/08/17 02:47:02;;;;;;;7.07;2.08;;;;;;;10.61;100.00;101325.59;5052917;28;20037;-83
2022/08/17 02:49:29;;;;;;;8.95;2.47;;;;;;;10.60;100.00;101336.94;5052164;28;20067;-83
2022/08/17 02:51:57;;;;;;;8.05;2.00;;;;;;;10.71;100.00;101349.78;5052040;28;20049;-83
2022/08/17 02:54:24;;;;;;;8.27;1.75;;;;;;;10.53;100.00;101345.88;5053051;28;20415;-83
2022/08/17 02:57:08;;;;;;;8.75;2.20;;;;;;;10.42;100.00;101350.56;5051570;28;20041;-82
2022/08/17 02:59:37;;;;;;;6.70;1.70;;;;;;;10.49;100.00;101354.72;5052023;28;20057;-82
2022/08/17 03:02:10;;;;;;;6.47;2.17;;;;;;;10.53;100.00;101351.13;5050880;28;20055;-82
2022/08/17 03:04:37;;;;;;;6.10;2.42;;;;;;;10.37;100.00;101342.81;5051498;28;20048;-82
2022/08/17 03:07:04;;;;;;;6.28;2.10;;;;;;;10.35;100.00;101342.00;5038623;28;20057;-82
2022/08/17 03:09:31;;;;;;;6.47;1.90;;;;;;;10.38;100.00;101341.94;5040705;28;20055;-82
2022/08/17 03:12:07;;;;;;;9.20;2.15;;;;;;;10.35;100.00;101355.09;5051459;28;20045;-83
2022/08/17 03:14:41;;;;;;;5.75;2.00;;;;;;;10.42;100.00;101348.78;5038870;28;20051;-82
2022/08/17 03:17:09;;;;;;;7.95;1.88;;;;;;;10.32;100.00;101329.00;5051640;28;20052;-82
2022/08/17 03:19:42;;;;;;;8.13;2.50;;;;;;;10.41;100.00;101336.63;5051512;28;20139;-82
2022/08/17 03:22:09;;;;;;;8.27;2.20;;;;;;;10.27;100.00;101336.09;5052134;28;20055;-83
2022/08/17 03:24:56;;;;;;;9.57;2.28;;;;;;;10.38;100.00;101336.69;5038278;28;20052;-83
2022/08/17 03:27:23;;;;;;;7.35;2.33;;;;;;;10.47;100.00;101335.59;5051405;28;20471;-83
2022/08/17 03:29:50;;;;;;;7.00;2.45;;;;;;;10.47;100.00;101332.97;5051524;28;20045;-83
2022/08/17 03:32:19;;;;;;;8.73;2.75;;;;;;;10.60;100.00;101336.94;5051632;28;20091;-83
2022/08/17 03:34:46;;;;;;;6.70;2.20;;;;;;;10.63;100.00;101336.88;5052082;28;20045;-83
2022/08/17 03:37:13;;;;;;;7.97;2.22;;;;;;;10.76;100.00;101342.59;5051393;28;20132;-83
2022/08/17 03:39:40;;;;;;;6.82;2.13;;;;;;;10.76;100.00;101336.53;5048654;28;20483;-83
2022/08/17 03:42:13;;;;;;;8.13;1.98;;;;;;;10.69;100.00;101322.75;5038847;28;20049;-83
2022/08/17 03:44:59;;;;;;;10.35;2.00;;;;;;;10.73;100.00;101354.94;5050206;28;20103;-83
2022/08/17 03:58:30;;;;;;;7.18;2.00;;;;;;;10.66;100.00;101337.69;5050433;28;20049;-83
2022/08/17 04:00:56;;;;;;;5.43;1.60;;;;;;;10.82;100.00;101338.97;5051050;28;20400;-83
2022/08/17 04:03:23;;;;;;;10.85;2.22;;;;;;;10.53;100.00;101337.19;5051125;28;20479;-84
2022/08/17 04:05:50;;;;;;;8.07;2.00;;;;;;;10.70;100.00;101332.31;5051047;28;20406;-83
2022/08/17 04:08:16;;;;;;;6.60;1.70;;;;;;;10.69;100.00;101338.44;5051419;28;20494;-84
2022/08/17 04:10:43;;;;;;;8.82;2.00;;;;;;;10.63;100.00;101338.63;5051507;28;20387;-83
2022/08/17 04:13:11;;;;;;;6.68;1.75;;;;;;;10.54;100.00;101347.59;5050242;28;20103;-83
2022/08/17 04:15:38;;;;;;;8.80;2.00;;;;;;;10.63;100.00;101349.97;5051190;28;20529;-83
2022/08/17 04:18:06;;;;;;;9.32;2.15;;;;;;;10.53;100.00;101343.25;5051257;28;20398;-83
2022/08/17 04:20:36;;;;;;;8.80;2.40;;;;;;;10.44;100.00;101333.03;5051434;28;20422;-83
2022/08/17 04:23:08;;;;;;;9.77;1.73;;;;;;;10.66;100.00;101349.03;5050953;28;20045;-83
2022/08/17 04:25:37;;;;;;;5.90;1.55;;;;;;;10.77;100.00;101357.44;5050976;28;20057;-84
2022/08/17 04:28:05;;;;;;;7.28;1.50;;;;;;;10.61;100.00;101338.69;5051078;28;20040;-83
2022/08/17 04:30:42;;;;;;;3.88;1.33;;;;;;;10.56;100.00;101330.09;5050891;28;20486;-83
2022/08/17 04:33:12;;;;;;;6.75;1.50;;;;;;;10.66;100.00;101332.44;5036535;28;20053;-83
2022/08/17 04:35:48;;;;;;;6.78;1.30;;;;;;;10.78;100.00;101326.84;5051002;28;20053;-83
2022/08/17 04:38:18;;;;;;;11.40;2.55;;;;;;;10.86;100.00;101345.00;5052942;28;20041;-83
2022/08/17 04:43:34;;;;;;;6.82;1.50;;;;;;;10.68;100.00;101328.00;5042930;28;20048;-83
2022/08/17 04:46:04;;;;;;;8.38;1.60;;;;;;;10.88;100.00;101337.94;5055331;28;20049;-83
2022/08/17 04:48:39;;;;;;;5.65;1.45;;;;;;;10.79;100.00;101346.91;5054389;28;20052;-83
2022/08/17 04:51:22;;;;;;;6.72;1.50;;;;;;;10.69;100.00;101335.84;5048908;28;20063;-83
2022/08/17 04:53:53;;;;;;;5.32;1.20;;;;;;;10.86;100.00;101339.75;5042548;28;20065;-83
2022/08/17 04:56:21;;;;;;;9.05;1.70;;;;;;;11.06;100.00;101349.63;5054281;28;20052;-82
2022/08/17 04:58:50;;;;;;;2.65;1.10;;;;;;;11.18;100.00;101352.72;5054127;28;20045;-83
2022/08/17 05:01:19;;;;;;;3.05;1.10;;;;;;;11.23;100.00;101355.22;5049621;28;20475;-82
2022/08/17 05:03:55;;;;;;;4.10;1.05;;;;;;;11.14;100.00;101338.00;5054954;28;20499;-83
2022/08/17 05:06:22;;;;;;;6.65;1.60;;;;;;;11.19;100.00;101337.84;5041847;28;20057;-82
2022/08/17 05:08:49;;;;;;;6.00;1.30;;;;;;;11.37;100.00;101357.44;5053864;28;20478;-83
2022/08/17 05:11:16;;;;;;;6.35;1.33;;;;;;;11.35;100.00;101348.72;5053859;28;20053;-82
2022/08/17 05:13:43;;;;;;;3.58;1.15;;;;;;;11.44;100.00;101368.56;5053421;28;20051;-84
2022/08/17 05:16:10;;;;;;;4.82;1.08;;;;;;;11.48;100.00;101355.31;5054034;28;20111;-83
2022/08/17 05:18:37;;;;;;;3.67;1.30;;;;;;;11.52;100.00;101362.19;5054498;28;20092;-84
2022/08/17 05:21:05;;;;;;;2.28;1.10;;;;;;;11.47;100.00;101366.69;5053939;28;20459;-83
2022/08/17 05:23:34;;;;;;;5.03;1.45;;;;;;;11.37;100.00;101368.78;5053914;28;20060;-83
2022/08/17 05:26:16;;;;;;;4.15;1.50;;;;;;;11.51;100.00;101370.09;5054046;28;20049;-84
2022/08/17 05:28:57;;;;;;;7.18;1.30;;;;;;;11.26;100.00;101368.25;5052856;28;20055;-83
2022/08/17 05:31:28;;;;;;;4.75;1.52;;;;;;;11.36;100.00;101377.53;5042939;28;20049;-83
2022/08/17 05:33:55;;;;;;;5.82;1.20;;;;;;;11.31;100.00;101370.72;5053341;28;20128;-83
2022/08/17 05:36:22;;;;;;;2.83;1.10;;;;;;;11.17;100.00;101369.38;5053344;28;20053;-83
2022/08/17 05:39:08;;;;;;;3.83;1.20;;;;;;;11.39;100.00;101377.44;5053425;28;20114;-83
2022/08/17 05:41:42;;;;;;;7.63;1.45;;;;;;;11.49;100.00;101380.66;5053571;28;20423;-83
2022/08/17 05:44:09;;;;;;;4.93;1.58;;;;;;;11.47;100.00;101374.56;5053511;28;20071;-82
2022/08/17 05:46:40;;;;;;;6.10;1.20;;;;;;;11.47;100.00;101371.09;5048771;28;20056;-82
2022/08/17 05:49:08;;;;;;;3.80;1.40;;;;;;;11.51;100.00;101380.56;5053330;28;20609;-82
2022/08/17 05:51:44;;;;;;;3.05;1.02;;;;;;;11.83;100.00;101389.19;5053049;28;20045;-83
2022/08/17 05:54:22;;;;;;;5.55;1.33;;;;;;;11.61;100.00;101387.25;5053117;28;20049;-83
2022/08/17 05:56:52;;;;;;;6.47;1.60;;;;;;;11.64;100.00;101384.53;5040954;28;20410;-83
2022/08/17 05:59:56;;;;;;;6.70;1.80;;;;;;;11.64;100.00;101387.16;5042571;28;20049;-83
2022/08/17 06:02:44;;;;;;;5.78;1.70;;;;;;;11.76;100.00;101391.19;5049932;28;20052;-83
2022/08/17 06:05:13;;;;;;;2.72;1.15;;;;;;;11.74;100.00;101395.63;5052582;28;20041;-83
2022/08/17 06:07:48;;;;;;;6.68;1.73;;;;;;;11.51;100.00;101385.81;5052954;28;20639;-83
2022/08/17 06:10:27;;;;;;;4.30;1.35;;;;;;;11.76;100.00;101401.66;5052524;28;20059;-83
2022/08/17 06:13:06;;;;;;;3.08;1.30;;;;;;;11.85;100.00;101406.63;5052821;28;20098;-82
2022/08/17 06:16:12;;;;;;;7.40;1.70;;;;;;;11.91;100.00;101406.44;5051943;28;20489;-83
2022/08/17 06:19:19;;;;;;;3.33;1.15;;;;;;;12.07;100.00;101403.31;5038332;28;20052;-83
2022/08/17 06:21:51;;;;;;;3.90;1.40;;;;;;;12.00;100.00;101397.41;5052478;28;20053;-83
2022/08/17 06:24:38;;;;;;;2.90;1.23;;;;;;;11.84;100.00;101393.53;5038508;28;20051;-83
2022/08/17 06:27:23;;;;;;;5.70;1.20;;;;;;;11.95;100.00;101415.06;5052322;28;20055;-83
2022/08/17 06:30:23;;;;;;;5.93;1.60;;;;;;;11.91;100.00;101409.06;5052452;28;20551;-83
2022/08/17 06:32:52;;;;;;;12.38;2.20;;;;;;;11.93;100.00;101416.88;5027294;28;20414;-83
2022/08/17 06:35:30;;;;;;;7.97;1.50;;;;;;;12.07;100.00;101416.44;5040621;28;20053;-83
2022/08/17 06:38:13;;;;;;;4.65;1.42;;;;;;;12.16;100.00;101403.00;5032351;28;20081;-83
2022/08/17 06:41:22;;;;;;;6.00;1.30;;;;;;;12.22;100.00;101418.56;5046138;28;20056;-83
2022/08/17 06:43:58;;;;;;;6.50;1.90;;;;;;;12.12;100.00;101418.00;5044489;28;20049;-83
2022/08/17 06:46:47;;;;;;;6.03;1.60;;;;;;;12.15;100.00;101422.31;5043167;28;20049;-83
2022/08/17 06:49:24;;;;;;;7.22;1.67;;;;;;;12.21;100.00;101429.13;5051744;28;20395;-83
2022/08/17 06:52:00;;;;;;;5.97;1.35;;;;;;;12.00;100.00;101410.53;5052459;28;20481;-83
2022/08/17 06:54:30;;;;;;;7.93;1.60;;;;;;;12.24;100.00;101427.25;5052734;28;20053;-83
2022/08/17 06:57:06;;;;;;;9.32;1.65;;;;;;;12.23;100.00;101437.78;5051811;28;20395;-84
2022/08/17 06:59:49;;;;;;;7.57;1.70;;;;;;;12.06;100.00;101431.34;5050937;28;20045;-83
2022/08/17 07:03:00;;;;;;;6.88;1.75;;;;;;;12.34;100.00;101435.66;5039035;28;20063;-83
2022/08/17 07:05:35;;;;;;;5.15;1.35;;;;;;;12.55;100.00;101436.69;5053016;28;20045;-83
2022/08/17 07:08:33;;;;;;;7.53;1.50;;;;;;;12.18;100.00;101406.44;5052004;28;20376;-83
2022/08/17 07:11:27;;;;;;;8.60;1.95;;;;;;;12.61;100.00;101435.66;5040597;28;20544;-83
2022/08/17 07:13:56;;;;;;;7.10;2.00;;;;;;;12.35;100.00;101440.00;5024363;28;20455;-83
2022/08/17 07:16:49;;;;;;;4.35;1.33;;;;;;;12.43;100.00;101413.47;5052714;28;20045;-82
2022/08/17 07:19:21;;;;;;;7.50;1.55;;;;;;;12.63;100.00;101431.19;5052787;28;20055;-83
2022/08/17 07:22:13;;;;;;;5.00;1.40;;;;;;;12.83;100.00;101441.84;5047847;28;20049;-83
2022/08/17 07:24:56;;;;;;;4.35;1.40;;;;;;;12.80;100.00;101388.53;5053469;28;20053;-83
2022/08/17 07:27:30;;;;;;;9.98;1.95;;;;;;;12.97;100.00;101432.59;5035222;28;20050;-82
2022/08/17 07:30:01;;;;;;;6.07;1.50;;;;;;;12.96;100.00;101407.22;5043731;28;20045;-83
2022/08/17 07:32:46;;;;;;;6.45;1.63;;;;;;;12.69;100.00;101366.13;5053285;28;20483;-83
2022/08/17 07:35:17;;;;;;;5.75;1.70;;;;;;;13.15;100.00;101431.91;5046688;28;20052;-82
2022/08/17 07:37:51;;;;;;;7.30;2.20;;;;;;;13.02;100.00;101375.47;5050354;28;20051;-83
2022/08/17 07:40:25;;;;;;;;;;;;;;;13.48;100.00;101440.34;5053001;28;20045;-83
2022/08/17 07:43:04;;;;;;;;;;;;;;;13.50;100.00;101442.06;5051883;28;19927;-82
2022/08/17 07:48:21;;;;;;;7.70;1.98;;;;;;;13.35;100.00;101448.75;5040459;28;20048;-82
2022/08/17 07:50:52;;;;;;;6.05;1.42;;;;;;;13.35;100.00;101394.41;5052159;28;20052;-82
2022/08/17 07:53:23;;;;;;;6.47;1.60;;;;;;;13.70;100.00;101422.84;5039433;28;20055;-83
2022/08/17 07:55:52;;;;;;;5.82;1.77;;;;;;;13.70;100.00;101425.50;5039419;28;20049;-83
2022/08/17 07:58:22;;;;;;;4.60;1.50;;;;;;;13.63;100.00;101394.16;5049331;28;20136;-83
2022/08/17 08:01:08;;;;;;;4.55;1.58;;;;;;;13.94;100.00;101392.91;5052421;28;20055;-83
2022/08/17 08:03:44;;;;;;;4.30;1.35;;;;;;;14.47;100.00;101453.97;5048008;28;20072;-83
2022/08/17 08:06:23;;;;;;;6.43;1.27;;;;;;;14.37;100.00;101412.16;5044671;28;20052;-83
2022/08/17 08:08:53;;;;;;;6.07;1.63;;;;;;;14.49;100.00;101431.03;5051587;28;20379;-83
2022/08/17 08:11:35;;;;;;;5.95;2.10;;;;;;;14.58;100.00;101463.13;5052832;28;20070;-83
2022/08/17 08:14:40;;;;;;;5.68;1.70;;;;;;;14.28;100.00;101446.81;5040087;28;20057;-82
2022/08/17 08:17:08;;;;;;;6.85;1.40;;;;;;;14.38;100.00;101431.50;5002900;28;20044;-82
2022/08/17 08:19:35;;;;;;;6.82;1.63;;;;;;;14.47;100.00;101452.16;5055234;28;20048;-82
2022/08/17 08:22:11;;;;;;;7.55;1.60;;;;;;;14.46;100.00;101444.31;5053792;28;20053;-83
2022/08/17 08:24:46;;;;;;;6.72;1.77;;;;;;;14.20;100.00;101465.56;5045300;28;20515;-82
2022/08/17 08:27:41;;;;;;;7.35;1.58;;;;;;;14.55;100.00;101422.84;5053003;28;20045;-82
2022/08/17 08:30:22;;;;;;;5.57;1.40;;;;;;;15.12;100.00;101434.41;5035123;28;20068;-82
2022/08/17 08:33:17;;;;;;;8.07;1.60;;;;;;;14.77;100.00;101436.00;5041052;28;20041;-83
2022/08/17 08:35:52;;;;;;;4.65;1.40;;;;;;;15.26;100.00;101427.63;5054358;28;20051;-82
2022/08/17 08:38:44;;;;;;;4.75;1.50;;;;;;;15.61;100.00;101446.25;5054784;28;20132;-83
2022/08/17 08:41:28;;;;;;;5.93;1.80;;;;;;;15.52;93.97;101400.03;5041001;28;20059;-82
2022/08/17 08:44:18;;;;;;;4.60;1.30;;;;;;;15.81;98.39;101440.03;5055942;28;20060;-83
2022/08/17 08:47:09;;;;;;;4.80;1.35;;;;;;;15.79;100.00;101437.47;5043399;28;20048;-83
2022/08/17 08:50:04;;;;;;;6.25;1.42;;;;;;;15.67;93.81;101415.13;5054626;28;20047;-83
2022/08/17 08:52:52;;;;;;;5.03;1.30;;;;;;;15.92;77.90;101440.38;5054280;28;20052;-83
2022/08/17 08:55:31;;;;;;;4.38;1.23;;;;;;;15.96;71.05;101446.38;5056139;28;20049;-83
2022/08/17 08:58:06;;;;;;;5.32;1.45;;;;;;;15.66;64.55;101404.66;5054541;28;20045;-83
2022/08/17 09:00:57;;;;;;;4.30;1.40;;;;;;;16.12;66.54;101431.47;5054753;28;20044;-83
2022/08/17 09:03:56;;;;;;;4.43;1.20;;;;;;;16.21;65.03;101409.03;5052393;28;20049;-83
2022/08/17 09:07:28;;;;;;;5.40;1.23;;;;;;;16.30;65.35;101433.19;5028371;28;20049;-83
2022/08/17 09:10:13;;;;;;;9.75;1.90;;;;;;;16.15;68.64;101433.97;5021879;28;20045;-83
2022/08/17 09:13:01;;;;;;;4.35;1.25;;;;;;;16.11;66.88;101430.63;5050918;28;20052;-83
2022/08/17 09:15:46;;;;;;;7.20;1.35;;;;;;;16.31;62.26;101399.69;5055263;28;20046;-83
2022/08/17 09:18:37;;;;;;;5.38;1.50;;;;;;;15.92;62.18;101391.06;5047508;28;20466;-83
2022/08/17 09:21:48;;;;;;;4.22;1.40;;;;;;;16.00;61.69;101434.72;5038695;28;20060;-83
2022/08/17 09:24:23;;;;;;;3.42;1.20;;;;;;;15.85;64.47;101413.41;5053642;28;20045;-82
2022/08/17 09:26:57;;;;;;;6.03;1.23;;;;;;;15.60;61.52;101415.47;5053233;28;20132;-82
2022/08/17 09:29:28;;;;;;;4.20;1.27;;;;;;;15.76;64.25;101432.34;5040945;28;20041;-83
2022/08/17 09:32:02;;;;;;;4.20;1.30;;;;;;;15.26;62.01;101370.44;5042157;28;20049;-82
2022/08/17 09:34:38;;;;;;;4.13;1.20;;;;;;;15.67;62.27;101425.69;5055079;28;20533;-83
2022/08/17 09:37:18;;;;;;;5.75;1.70;;;;;;;15.88;59.94;101425.59;5053836;28;20059;-82
2022/08/17 09:40:01;;;;;;;5.10;1.20;;;;;;;15.88;64.02;101428.25;5053652;28;20045;-82
2022/08/17 09:42:53;;;;;;;7.90;1.83;;;;;;;16.19;62.60;101390.59;5052273;28;20604;-83
2022/08/17 09:45:26;;;;;;;5.05;1.40;;;;;;;16.43;60.57;101428.16;5046331;28;20410;-83
2022/08/17 09:48:19;;;;;;;7.03;1.60;;;;;;;16.16;60.17;101417.16;5040359;28;20131;-83
2022/08/17 09:50:54;;;;;;;7.45;1.60;;;;;;;15.86;60.53;101427.47;5044225;28;20049;-83
2022/08/17 09:53:34;;;;;;;7.70;1.20;;;;;;;16.12;60.10;101429.69;5054743;28;20045;-83
2022/08/17 09:56:17;;;;;;;5.10;1.42;;;;;;;16.46;60.03;101432.41;5053904;28;20049;-83
2022/08/17 09:59:15;;;;;;;6.30;1.48;;;;;;;16.80;54.53;101418.31;5053825;28;20037;-82
2022/08/17 10:01:55;;;;;;;3.78;1.08;;;;;;;16.97;56.81;101430.66;5021848;28;20068;-83
2022/08/17 10:04:38;;;;;;;4.25;1.10;;;;;;;16.92;54.93;101424.75;5054303;28;20056;-82
2022/08/17 10:07:14;;;;;;;7.50;1.75;;;;;;;16.60;52.92;101429.91;5048194;28;20053;-82
2022/08/17 10:10:16;;;;;;;3.03;1.10;;;;;;;16.87;51.67;101421.47;5035148;28;20085;-82
2022/08/17 10:12:57;;;;;;;4.20;1.25;;;;;;;17.27;53.70;101406.09;5036659;28;20057;-82
2022/08/17 10:15:42;;;;;;;2.95;0.95;;;;;;;17.29;51.68;101390.16;5052909;28;20053;-82
2022/08/17 10:18:44;;;;;;;6.60;1.25;;;;;;;17.03;50.14;101421.50;5054046;28;20418;-82
2022/08/17 10:27:07;;;;;;;3.75;1.00;;;;;;;17.74;49.12;101376.13;5038547;28;20058;-82
2022/08/17 10:29:50;;;;;;;4.25;1.20;;;;;;;17.63;47.61;101408.47;5053721;28;20051;-82
2022/08/17 10:32:25;;;;;;;3.20;1.20;;;;;;;17.93;50.15;101397.09;5041651;28;20384;-82
2022/08/17 10:35:11;;;;;;;5.75;1.40;;;;;;;18.48;49.30;101410.69;5043767;28;20489;-82
2022/08/17 10:37:45;;;;;;;3.83;1.30;;;;;;;18.14;51.71;101402.09;5050114;28;20049;-82
2022/08/17 10:40:15;;;;;;;6.10;1.50;;;;;;;18.36;48.69;101401.66;5053433;28;20091;-82
2022/08/17 10:42:50;;;;;;;5.13;1.20;;;;;;;18.16;46.13;101405.50;5052594;28;20483;-82
2022/08/17 10:45:25;;;;;;;3.00;1.02;;;;;;;17.87;46.65;101405.41;5052826;28;20136;-83
2022/08/17 10:48:02;;;;;;;3.38;1.10;;;;;;;18.09;49.07;101417.41;5036268;28;20048;-82
2022/08/17 10:50:45;;;;;;;4.05;1.40;;;;;;;18.12;47.82;101399.53;5045664;28;20128;-82
2022/08/17 10:53:30;;;;;;;4.28;1.27;;;;;;;18.14;48.06;101400.28;5053505;28;20045;-82
2022/08/17 10:56:12;;;;;;;7.85;1.38;;;;;;;18.87;48.82;101394.16;5052204;28;20044;-82
2022/08/17 10:58:56;;;;;;;3.75;1.20;;;;;;;18.59;47.66;101397.63;5052469;28;20103;-82
2022/08/17 11:01:31;;;;;;;7.13;1.33;;;;;;;18.54;46.57;101399.72;5052038;28;20044;-83
2022/08/17 11:04:33;;;;;;;5.35;1.27;;;;;;;18.18;45.76;101395.66;5040142;28;20048;-82
2022/08/17 11:07:15;;;;;;;3.33;1.00;;;;;;;17.83;46.06;101402.06;5019739;28;20124;-82
2022/08/17 11:09:44;;;;;;;5.82;1.20;;;;;;;18.09;49.68;101406.81;5051697;28;20051;-83
2022/08/17 11:12:31;;;;;;;4.95;1.50;;;;;;;17.70;47.03;101345.44;5045964;28;20483;-83
2022/08/17 11:15:16;;;;;;;6.03;1.60;;;;;;;18.10;48.69;101403.25;5039747;28;20065;-82
2022/08/17 11:18:00;;;;;;;7.07;2.08;;;;;;;18.12;49.00;101396.88;5041093;28;20076;-83
2022/08/17 11:20:51;;;;;;;4.18;1.33;;;;;;;18.19;46.93;101403.53;5049510;28;20041;-82
2022/08/17 11:23:44;;;;;;;5.78;1.20;;;;;;;18.34;47.47;101383.22;5043935;28;20056;-83
2022/08/17 11:26:26;;;;;;;5.10;1.20;;;;;;;18.10;47.66;101395.28;5052090;28;20051;-83
2022/08/17 11:28:58;;;;;;;6.15;1.40;;;;;;;17.42;48.73;101384.09;5048419;28;20045;-83
2022/08/17 11:31:42;;;;;;;5.90;1.27;;;;;;;17.59;48.25;101393.72;5051062;28;20045;-83
2022/08/17 11:34:17;;;;;;;5.07;1.10;;;;;;;18.17;47.63;101380.72;5051678;28;20493;-83
2022/08/17 11:37:18;;;;;;;4.93;1.60;;;;;;;18.48;49.37;101387.69;5052038;28;20055;-83
2022/08/17 11:40:09;;;;;;;6.03;1.38;;;;;;;17.52;47.72;101381.75;5038567;28;20510;-83
2022/08/17 11:43:09;;;;;;;4.88;1.27;;;;;;;17.68;48.83;101394.97;5037750;28;20080;-83
2022/08/17 11:45:51;;;;;;;4.35;1.10;;;;;;;17.35;49.40;101395.09;5023967;28;20053;-83
2022/08/17 11:51:34;;;;;;;3.25;1.00;;;;;;;17.73;50.63;101395.59;5055371;28;20048;-82
2022/08/17 11:54:08;;;;;;;4.90;1.20;;;;;;;17.82;51.67;101396.84;5056623;28;20044;-82
2022/08/17 11:57:20;;;;;;;5.65;1.20;;;;;;;17.84;49.29;101398.44;5040368;28;20052;-83
2022/08/17 11:59:46;;;;;;;4.93;1.40;;;;;;;17.80;51.09;101398.75;5043809;28;20076;-83
2022/08/17 12:02:37;;;;;;;4.75;1.40;;;;;;;18.09;52.46;101377.66;5055445;28;20053;-83
2022/08/17 12:05:13;;;;;;;4.28;1.27;;;;;;;18.12;49.09;101393.41;5055338;28;20128;-83
2022/08/17 12:07:51;;;;;;;8.23;1.40;;;;;;;17.80;52.89;101396.09;5054522;28;20126;-83
2022/08/17 12:10:22;;;;;;;6.10;1.58;;;;;;;17.56;53.30;101390.38;5055197;28;21600;-83
2022/08/17 12:12:52;;;;;;;6.40;1.65;;;;;;;17.39;52.03;101371.03;5047013;28;20059;-83
2022/08/17 12:15:39;;;;;;;5.35;1.45;;;;;;;17.45;52.53;101396.28;5054961;28;20434;-83
2022/08/17 12:18:05;;;;;;;5.30;1.33;;;;;;;17.46;51.69;101380.31;5054349;28;20052;-83
2022/08/17 12:20:36;;;;;;;5.20;1.60;;;;;;;17.61;52.61;101386.53;5054275;28;20049;-82
2022/08/17 12:23:09;;;;;;;5.55;1.38;;;;;;;17.59;53.15;101392.88;5054018;28;20467;-83
2022/08/17 12:25:56;;;;;;;;;;;;;;;17.48;49.04;101406.72;5054835;28;21087;-83
2022/08/17 12:28:30;;;;;;;3.97;1.25;;;;;;;17.22;47.98;101411.66;5034378;28;20367;-83
2022/08/17 12:31:18;;;;;;;3.85;1.17;;;;;;;17.23;50.35;101410.72;5053039;28;20578;-83